Time;durP1;ratioP1;P1;durP2;ratioP2;P2;SDS_P1;SDS_P2;PMS_P1;PMS_P2;Temp;Humidity;BMP_temperature;BMP_pressure;BME280_temperature;BME280_humidity;BME280_pressure;Samples;Min_cycle;Max_cycle;Signal;HPM_P1;HPM_P2
2024/01/08 00:03:46;;;;;;;3.47;1.53;;;1.20;99.90;;;;;;5979755;23;20023;-79
2024/01/08 00:06:30;;;;;;;2.13;1.45;;;1.20;99.90;;;;;;6035702;23;20000;-83
2024/01/08 00:09:27;;;;;;;3.03;1.70;;;1.20;99.90;;;;;;6110311;23;19990;-82
2024/01/08 00:24:02;;;;;;;2.13;1.50;;;1.10;99.90;;;;;;6303725;22;20034;-82
2024/01/08 00:31:14;;;;;;;;;;;;;;;;;;;;;
2024/01/08 00:37:35;;;;;;;;;;;1.30;99.90;;;;;;6181793;23;20042;-79
2024/01/08 00:46:37;;;;;;;1.58;1.10;;;1.20;99.90;;;;;;6124336;23;19993;-82
2024/01/08 00:53:58;;;;;;;2.90;1.38;;;1.20;99.90;;;;;;5973523;24;20096;-82
2024/01/08 00:57:47;;;;;;;3.90;1.48;;;1.30;99.90;;;;;;5927239;24;20036;-81
2024/01/08 01:00:04;;;;;;;1.73;1.20;;;1.30;99.90;;;;;;5972270;24;20013;-82
2024/01/08 01:02:49;;;;;;;4.20;1.50;;;1.30;99.90;;;;;;6053476;23;20003;-82
2024/01/08 01:05:38;;;;;;;2.20;1.48;;;1.20;99.90;;;;;;6081988;23;20077;-83
2024/01/08 01:08:44;;;;;;;1.85;1.30;;;0.30;99.90;;;;;;6083131;23;20042;-82
2024/01/08 01:32:46;;;;;;;1.92;1.20;;;;;;;;;;6227111;22;20011;-82
2024/01/08 01:35:23;;;;;;;1.92;1.20;;;1.40;99.90;;;;;;6244893;22;20003;-83
2024/01/08 01:37:50;;;;;;;5.90;1.48;;;1.20;99.90;;;;;;6205027;22;20445;-82
2024/01/08 01:40:23;;;;;;;1.90;1.23;;;1.20;99.90;;;;;;6243013;23;20015;-84
2024/01/08 01:43:28;;;;;;;2.20;1.40;;;1.20;99.90;;;;;;6271829;22;20008;-81
2024/01/08 01:45:57;;;;;;;2.15;1.10;;;1.20;99.90;;;;;;6244449;23;20037;-83
2024/01/08 01:48:27;;;;;;;2.15;1.33;;;;;;;;;;6272300;23;20018;-82
2024/01/08 01:51:14;;;;;;;1.80;1.27;;;1.30;99.90;;;;;;6272335;22;19995;-83
2024/01/08 01:54:13;;;;;;;2.63;1.30;;;1.20;99.90;;;;;;6248543;22;19996;-80
2024/01/08 01:57:10;;;;;;;1.98;1.20;;;1.30;99.90;;;;;;6238647;23;20004;-83
2024/01/08 01:59:39;;;;;;;2.70;1.30;;;1.40;99.90;;;;;;6270975;23;19992;-81
2024/01/08 02:02:10;;;;;;;1.92;1.30;;;1.40;99.90;;;;;;6244228;23;19999;-81
2024/01/08 02:04:40;;;;;;;;;;;0.60;99.90;;;;;;6263405;23;20004;-82
2024/01/08 02:07:08;;;;;;;1.60;0.90;;;;;;;;;;6246119;23;19887;-82
2024/01/08 02:10:03;;;;;;;2.25;1.08;;;1.30;99.90;;;;;;6244913;23;19999;-82
2024/01/08 02:12:40;;;;;;;1.83;1.10;;;1.30;99.90;;;;;;6266372;23;20005;-82
2024/01/08 02:15:33;;;;;;;2.03;1.20;;;1.10;99.90;;;;;;6243409;23;20015;-80
2024/01/08 02:18:09;;;;;;;2.13;1.10;;;1.20;99.90;;;;;;6213613;23;20099;-80
2024/01/08 02:20:58;;;;;;;1.98;1.17;;;1.20;99.90;;;;;;6254412;23;20019;-81
2024/01/08 02:23:31;;;;;;;1.58;1.05;;;1.30;99.90;;;;;;6207274;23;20005;-82
2024/01/08 02:26:39;;;;;;;1.83;1.27;;;1.20;99.90;;;;;;6220237;23;20064;-81
2024/01/08 02:29:06;;;;;;;2.30;1.10;;;;;;;;;;6244539;23;20001;-81
2024/01/08 02:32:07;;;;;;;3.03;1.30;;;1.00;99.90;;;;;;6269178;23;19988;-82
2024/01/08 02:35:15;;;;;;;2.95;1.20;;;1.00;99.90;;;;;;6268797;23;20004;-82
2024/01/08 02:37:43;;;;;;;1.42;0.82;;;;;;;;;;6192895;23;20050;-82
2024/01/08 02:40:50;;;;;;;1.92;0.90;;;1.20;99.90;;;;;;6248396;23;20015;-81
2024/01/08 02:43:39;;;;;;;1.85;0.82;;;1.20;99.90;;;;;;6194122;23;20016;-82
2024/01/08 02:46:39;;;;;;;2.17;1.10;;;1.30;99.90;;;;;;6259080;23;20004;-83
2024/01/08 02:49:33;;;;;;;1.83;1.20;;;1.10;99.90;;;;;;6271027;23;20056;-81
2024/01/08 02:52:05;;;;;;;2.13;0.80;;;1.10;99.90;;;;;;6243699;23;20000;-83
2024/01/08 02:55:05;;;;;;;1.60;0.93;;;1.10;99.90;;;;;;6218373;23;20004;-82
2024/01/08 02:57:44;;;;;;;1.63;1.00;;;1.10;99.90;;;;;;6246747;23;20008;-82
2024/01/08 03:00:17;;;;;;;2.33;1.15;;;1.10;99.90;;;;;;6270800;23;20044;-82
2024/01/08 03:02:46;;;;;;;1.63;1.00;;;;;;;;;;6271701;23;19984;-82
2024/01/08 03:05:12;;;;;;;1.83;1.00;;;;;;;;;;6271554;22;20000;-82
2024/01/08 03:08:03;;;;;;;1.60;0.98;;;1.00;99.90;;;;;;6247282;22;20019;-82
2024/01/08 03:10:39;;;;;;;1.73;1.02;;;1.20;99.90;;;;;;6272681;23;20056;-82
2024/01/08 03:13:29;;;;;;;1.33;1.05;;;1.20;99.90;;;;;;6262635;23;20004;-80
2024/01/08 03:16:18;;;;;;;2.90;1.15;;;1.20;99.90;;;;;;6226667;23;19992;-83
2024/01/08 03:18:58;;;;;;;1.70;1.05;;;1.20;99.90;;;;;;6271789;23;20004;-81
2024/01/08 03:21:42;;;;;;;1.98;1.10;;;1.10;99.90;;;;;;6243988;23;19999;-82
2024/01/08 03:24:31;;;;;;;2.10;1.00;;;1.10;99.90;;;;;;6221512;23;20000;-81
2024/01/08 03:27:26;;;;;;;1.33;0.90;;;3.90;99.90;;;;;;6264331;23;20010;-82
2024/01/08 03:30:02;;;;;;;2.10;1.00;;;1.00;99.90;;;;;;6251158;23;20017;-82
2024/01/08 03:33:12;;;;;;;2.42;1.23;;;1.10;99.90;;;;;;6190812;23;19992;-81
2024/01/08 03:36:42;;;;;;;1.63;0.98;;;1.10;99.90;;;;;;6246229;23;19988;-79
2024/01/08 03:39:58;;;;;;;1.33;0.90;;;1.10;99.90;;;;;;6270810;23;20000;-81
2024/01/08 03:45:49;;;;;;;2.17;1.00;;;;;;;;;;6250938;23;20027;-81
2024/01/08 03:48:35;;;;;;;1.40;0.98;;;;;;;;;;6266312;23;20012;-81
2024/01/08 03:51:14;;;;;;;2.42;0.85;;;1.20;99.90;;;;;;6239650;23;20008;-81
2024/01/08 03:53:56;;;;;;;3.30;1.10;;;1.10;99.90;;;;;;6268924;22;20003;-81
2024/01/08 03:57:05;;;;;;;1.65;1.08;;;1.20;99.90;;;;;;6253905;22;20008;-81
2024/01/08 04:00:18;;;;;;;1.83;0.80;;;1.10;99.90;;;;;;6246895;23;20004;-81
2024/01/08 04:03:07;;;;;;;1.70;1.10;;;1.20;99.90;;;;;;6273247;22;19989;-82
2024/01/08 04:05:40;;;;;;;1.98;1.00;;;1.10;99.90;;;;;;6241184;23;20000;-81
2024/01/08 04:08:13;;;;;;;1.38;0.90;;;1.00;99.90;;;;;;6261255;23;20340;-80
2024/01/08 04:10:57;;;;;;;1.67;1.02;;;1.00;99.90;;;;;;6243805;23;20023;-81
2024/01/08 04:13:44;;;;;;;1.92;1.05;;;1.00;99.90;;;;;;6237452;23;20367;-81
2024/01/08 04:16:26;;;;;;;1.90;1.08;;;1.10;99.90;;;;;;6262037;23;20030;-83
2024/01/08 04:19:06;;;;;;;1.85;1.00;;;1.20;99.90;;;;;;6263287;23;20027;-82
2024/01/08 04:21:47;;;;;;;2.10;1.15;;;1.20;99.90;;;;;;6235080;23;20434;-81
2024/01/08 04:24:24;;;;;;;1.73;1.00;;;1.30;99.90;;;;;;6255066;23;20003;-81
2024/01/08 04:27:50;;;;;;;1.80;1.10;;;1.00;99.90;;;;;;6224754;23;20000;-82
2024/01/08 04:30:55;;;;;;;1.60;1.00;;;1.10;99.90;;;;;;6253149;23;20063;-81
2024/01/08 04:33:26;;;;;;;1.30;1.00;;;1.10;99.90;;;;;;6260835;23;20011;-82
2024/01/08 04:36:17;;;;;;;1.42;0.95;;;1.80;99.90;;;;;;6210728;23;20494;-82
2024/01/08 04:39:00;;;;;;;2.40;1.33;;;1.10;99.90;;;;;;6239326;23;20659;-81
2024/01/08 04:42:08;;;;;;;3.60;1.40;;;1.10;99.90;;;;;;6239713;23;20075;-82
2024/01/08 04:44:58;;;;;;;1.10;0.90;;;1.10;99.90;;;;;;6234290;23;20008;-81
2024/01/08 04:47:26;;;;;;;1.88;1.20;;;;;;;;;;6263327;23;20000;-81
2024/01/08 04:49:58;;;;;;;1.63;1.17;;;1.10;99.90;;;;;;6214010;23;20008;-82
2024/01/08 04:52:28;;;;;;;1.50;1.20;;;;;;;;;;6268048;23;20317;-79
2024/01/08 04:54:56;;;;;;;2.25;1.10;;;1.00;99.90;;;;;;6261078;23;20004;-82
2024/01/08 04:57:32;;;;;;;1.70;1.10;;;1.00;99.90;;;;;;6236032;23;20012;-81
2024/01/08 04:59:58;;;;;;;2.03;1.30;;;;;;;;;;6162327;23;20004;-81
2024/01/08 05:02:52;;;;;;;2.42;1.30;;;1.10;99.90;;;;;;6238435;23;20008;-82
2024/01/08 05:05:54;;;;;;;4.78;1.45;;;1.00;99.90;;;;;;6263180;23;20424;-82
2024/01/08 05:08:46;;;;;;;3.63;1.20;;;1.20;99.90;;;;;;6260656;23;20011;-81
2024/01/08 05:11:25;;;;;;;4.72;1.75;;;1.20;99.90;;;;;;6242447;23;19988;-83
2024/01/08 05:14:04;;;;;;;2.03;1.20;;;1.00;99.90;;;;;;6266303;23;20008;-81
2024/01/08 05:16:52;;;;;;;1.92;1.35;;;0.90;99.90;;;;;;6237837;23;20004;-82
2024/01/08 05:19:37;;;;;;;4.25;1.50;;;1.00;99.90;;;;;;6237945;23;20000;-81
2024/01/08 05:23:04;;;;;;;2.35;1.33;;;1.10;99.90;;;;;;6241091;23;20006;-83
2024/01/08 05:28:58;;;;;;;2.65;1.40;;;1.00;99.90;;;;;;6269068;23;20035;-83
2024/01/08 05:31:48;;;;;;;2.22;1.30;;;1.00;99.90;;;;;;6267447;23;20004;-81
2024/01/08 05:34:26;;;;;;;1.92;1.30;;;-1.60;99.90;;;;;;6211173;23;20028;-80
2024/01/08 05:37:23;;;;;;;2.05;1.25;;;1.10;99.90;;;;;;6224049;23;20016;-82
2024/01/08 05:39:50;;;;;;;2.95;1.50;;;;;;;;;;6264657;23;20011;-83
2024/01/08 05:42:16;;;;;;;3.65;1.63;;;;;;;;;;6232510;23;20016;-81
2024/01/08 05:45:07;;;;;;;3.03;1.77;;;1.00;99.90;;;;;;6221665;23;20013;-80
2024/01/08 05:48:09;;;;;;;2.30;1.45;;;1.00;99.90;;;;;;6242491;23;20035;-81
2024/01/08 05:50:36;;;;;;;3.28;1.70;;;0.90;99.90;;;;;;6244406;23;19989;-81
2024/01/08 05:53:04;;;;;;;4.07;1.92;;;;;;;;;;6227447;23;20011;-80
2024/01/08 05:55:34;;;;;;;2.88;1.50;;;1.10;99.90;;;;;;6243451;23;20072;-84
2024/01/08 05:58:04;;;;;;;4.35;1.95;;;1.10;99.90;;;;;;6242096;23;20027;-81
2024/01/08 06:00:57;;;;;;;3.60;1.45;;;1.00;99.90;;;;;;6235696;23;20038;-82
2024/01/08 06:03:40;;;;;;;2.65;1.83;;;1.00;99.90;;;;;;6244161;23;20015;-83
2024/01/08 06:06:16;;;;;;;1.85;1.27;;;1.00;99.90;;;;;;6217976;23;20020;-85
2024/01/08 06:08:54;;;;;;;2.60;1.30;;;3.20;99.90;;;;;;6239619;23;20001;-84
2024/01/08 06:11:53;;;;;;;1.80;1.30;;;1.00;99.90;;;;;;6243573;23;19988;-82
2024/01/08 06:14:57;;;;;;;2.65;1.50;;;1.10;99.90;;;;;;6240836;23;20027;-82
2024/01/08 06:17:28;;;;;;;2.70;1.33;;;-0.80;99.90;;;;;;6241748;23;20008;-80
2024/01/08 06:20:12;;;;;;;3.65;1.55;;;-0.30;99.90;;;;;;6172287;23;19996;-80
2024/01/08 06:22:46;;;;;;;3.67;1.58;;;;;;;;;;6242150;23;20016;-80
2024/01/08 06:25:19;;;;;;;2.45;1.38;;;1.00;99.90;;;;;;6240263;23;20013;-81
2024/01/08 06:27:48;;;;;;;2.85;1.42;;;;;;;;;;6242627;23;19988;-81
2024/01/08 06:30:49;;;;;;;2.30;1.40;;;1.10;99.90;;;;;;6241122;23;20014;-81
2024/01/08 06:33:42;;;;;;;3.22;1.80;;;1.00;99.90;;;;;;6239339;23;19993;-81
2024/01/08 06:36:51;;;;;;;3.33;1.75;;;1.00;99.90;;;;;;6170537;22;20018;-83
2024/01/08 06:55:13;;;;;;;3.13;1.70;;;0.90;99.90;;;;;;6266812;22;20084;-83
2024/01/08 06:58:01;;;;;;;3.33;1.85;;;1.00;99.90;;;;;;6181515;23;20032;-82
2024/01/08 07:00:35;;;;;;;3.15;2.00;;;0.90;99.90;;;;;;6181753;23;20037;-83
2024/01/08 07:03:17;;;;;;;3.03;1.70;;;;;;;;;;6178786;23;20005;-81
2024/01/08 07:05:47;;;;;;;2.78;1.73;;;1.50;99.90;;;;;;6177695;23;20056;-83
2024/01/08 07:08:15;;;;;;;;;;;0.00;99.90;;;;;;6241009;23;20011;-81
2024/01/08 07:10:50;;;;;;;3.65;1.90;;;0.70;99.90;;;;;;6242181;23;19914;-82
2024/01/08 09:15:52;;;;;;;3.22;1.75;;;1.00;99.90;;;;;;6200527;22;20050;-82
2024/01/08 11:50:48;;;;;;;3.65;2.20;;;0.90;99.90;;;;;;6265779;22;20016;-82
2024/01/08 11:53:27;;;;;;;5.35;2.85;;;0.90;99.90;;;;;;6265860;22;20020;-83
2024/01/08 12:00:23;;;;;;;4.90;2.83;;;-0.10;99.90;;;;;;6259048;22;20342;-80
2024/01/08 12:17:02;;;;;;;7.65;2.33;;;0.80;99.90;;;;;;6212810;22;20019;-80
2024/01/08 12:51:40;;;;;;;5.47;2.65;;;1.10;99.90;;;;;;6189930;22;20017;-82
2024/01/08 12:54:51;;;;;;;3.97;2.20;;;4.90;99.90;;;;;;6223042;23;20031;-82
2024/01/08 13:05:10;;;;;;;5.05;2.45;;;1.30;99.90;;;;;;6179177;22;20893;-81
2024/01/08 13:10:17;;;;;;;5.97;2.78;;;-1.60;99.20;;;;;;6257884;22;20019;-81
2024/01/08 13:12:56;;;;;;;5.75;2.90;;;1.10;99.90;;;;;;6277204;22;20063;-83
2024/01/08 13:15:29;;;;;;;4.95;2.63;;;1.20;99.90;;;;;;6303694;22;20004;-83
2024/01/08 13:31:32;;;;;;;6.35;2.83;;;1.00;99.90;;;;;;6288209;22;20015;-82
2024/01/08 13:34:13;;;;;;;6.35;3.30;;;0.00;99.90;;;;;;6260616;22;20000;-81
2024/01/08 13:36:55;;;;;;;6.00;2.72;;;1.00;99.90;;;;;;6260685;22;19999;-81
2024/01/08 13:39:30;;;;;;;5.35;2.83;;;0.90;99.90;;;;;;6299088;22;20034;-81
2024/01/08 13:44:54;;;;;;;6.45;3.15;;;0.90;99.90;;;;;;6240281;22;20033;-82
2024/01/08 13:59:50;;;;;;;6.10;3.08;;;0.20;99.90;;;;;;6236267;22;19923;-82
2024/01/08 16:45:06;;;;;;;7.88;4.15;;;-0.20;99.90;;;;;;6242094;22;20024;-82
2024/01/08 16:48:18;;;;;;;6.93;3.58;;;-0.20;99.90;;;;;;6238836;23;20300;-81
2024/01/08 16:51:34;;;;;;;8.73;3.63;;;-0.30;99.90;;;;;;6264589;23;20008;-82
2024/01/08 16:54:40;;;;;;;8.60;3.90;;;-0.40;99.90;;;;;;6137835;23;20013;-81
2024/01/08 17:00:13;;;;;;;6.38;3.42;;;-0.40;99.90;;;;;;6227500;22;20011;-81
2024/01/08 17:03:02;;;;;;;9.65;3.78;;;-0.40;99.90;;;;;;6262784;23;20036;-83
2024/01/08 17:06:34;;;;;;;7.47;4.13;;;-0.40;99.90;;;;;;6259418;23;20000;-82
2024/01/08 17:09:40;;;;;;;6.07;3.40;;;-0.50;99.90;;;;;;6228243;23;20024;-81
2024/01/08 17:12:34;;;;;;;10.27;4.95;;;-0.60;99.90;;;;;;6233118;23;20012;-82
2024/01/08 17:15:15;;;;;;;9.35;4.20;;;-0.50;99.90;;;;;;6232301;23;20000;-81
2024/01/08 17:18:16;;;;;;;8.98;4.40;;;-0.60;99.90;;;;;;6206908;23;20005;-83
2024/01/08 17:21:33;;;;;;;6.43;3.45;;;-0.60;99.90;;;;;;6231988;23;20008;-83
2024/01/08 17:32:06;;;;;;;7.72;4.00;;;-0.50;99.90;;;;;;6239141;22;20024;-82
2024/01/08 17:35:10;;;;;;;9.63;4.15;;;-0.50;99.90;;;;;;6222971;23;20004;-82
2024/01/08 19:48:29;;;;;;;13.80;6.03;;;-1.70;99.90;;;;;;6211182;22;20058;-82
2024/01/08 19:51:04;;;;;;;12.02;5.85;;;-1.60;99.90;;;;;;6224069;23;20024;-80
2024/01/08 19:53:44;;;;;;;14.02;5.97;;;-1.50;99.90;;;;;;6215665;23;20345;-80
2024/01/08 19:56:21;;;;;;;11.98;5.60;;;-1.60;99.90;;;;;;6256278;22;20000;-80
2024/01/08 19:58:52;;;;;;;11.93;6.15;;;-0.80;99.90;;;;;;6245494;23;20004;-82
2024/01/08 20:01:22;;;;;;;11.70;6.32;;;-1.80;99.90;;;;;;6233217;23;20016;-81
2024/01/08 20:03:55;;;;;;;11.70;6.05;;;-1.80;99.90;;;;;;6247115;22;20008;-83
2024/01/08 20:10:19;;;;;;;20.55;6.28;;;-1.70;99.90;;;;;;6207554;23;20346;-82
2024/01/08 20:13:15;;;;;;;12.10;5.70;;;-1.70;99.90;;;;;;6117130;23;20002;-82
2024/01/08 20:16:15;;;;;;;13.63;5.95;;;-1.80;99.90;;;;;;6231257;22;20000;-81
2024/01/08 20:19:05;;;;;;;12.15;6.43;;;-1.80;99.90;;;;;;6231653;23;20019;-82
2024/01/08 20:21:47;;;;;;;14.70;6.05;;;-1.70;99.90;;;;;;6245172;23;19991;-81
2024/01/08 20:25:04;;;;;;;11.60;5.93;;;-1.90;99.90;;;;;;6228105;23;20038;-81
2024/01/08 20:31:16;;;;;;;14.43;6.70;;;-1.90;99.90;;;;;;6252108;23;20039;-80
2024/01/08 20:38:07;;;;;;;14.45;6.30;;;-1.90;99.90;;;;;;6254259;22;20011;-80
2024/01/08 20:41:43;;;;;;;11.43;5.75;;;-1.80;99.90;;;;;;6127075;23;20021;-81
2024/01/08 20:44:25;;;;;;;13.23;6.75;;;-1.90;99.90;;;;;;6106629;23;20033;-81
2024/01/08 20:47:54;;;;;;;15.77;7.32;;;-2.00;99.90;;;;;;6072575;23;20016;-82
2024/01/08 20:51:17;;;;;;;13.25;5.75;;;-2.00;99.90;;;;;;6061569;23;20027;-82
2024/01/08 21:01:04;;;;;;;17.20;7.00;;;-1.90;99.90;;;;;;6058769;23;19909;-82
2024/01/08 21:07:58;;;;;;;15.68;6.38;;;-2.00;99.90;;;;;;6042990;23;20025;-81
2024/01/08 21:18:28;;;;;;;17.23;7.18;;;-2.30;99.90;;;;;;5929947;24;20017;-81
2024/01/08 21:31:39;;;;;;;13.17;5.77;;;-2.10;99.90;;;;;;5939867;24;19974;-80
2024/01/08 22:09:26;;;;;;;;;;;;;;;;;;;;;
2024/01/08 22:12:03;;;;;;;12.95;6.50;;;;;;;;;;6268505;22;20023;-80
2024/01/08 22:20:54;;;;;;;15.60;6.47;;;-2.50;99.90;;;;;;6209031;23;20482;-80
2024/01/08 22:24:10;;;;;;;15.50;6.80;;;-2.60;99.90;;;;;;6202510;23;20012;-79
2024/01/08 23:17:07;;;;;;;17.55;7.53;;;;;;;;;;6261105;22;20020;-83
2024/01/08 23:20:06;;;;;;;15.60;6.93;;;-3.10;99.90;;;;;;6299117;22;20012;-82
2024/01/08 23:22:38;;;;;;;13.20;5.90;;;-3.00;99.90;;;;;;6288129;22;20010;-80
2024/01/08 23:25:23;;;;;;;16.07;7.43;;;-3.00;99.90;;;;;;6288010;22;20057;-81
2024/01/08 23:28:16;;;;;;;;;;;;;;;;;;;;;
2024/01/08 23:34:55;;;;;;;14.50;7.00;;;-2.90;99.90;;;;;;6188025;23;20036;-82
2024/01/08 23:37:25;;;;;;;14.52;6.47;;;-3.00;99.90;;;;;;6221577;23;20015;-82
2024/01/08 23:40:17;;;;;;;15.27;6.33;;;;;;;;;;6252100;23;20403;-81
2024/01/08 23:43:17;;;;;;;18.88;8.10;;;;;;;;;;6226042;23;20339;-81
2024/01/08 23:45:52;;;;;;;13.27;5.97;;;;;;;;;;6243093;23;20000;-81
2024/01/08 23:48:42;;;;;;;15.15;6.97;;;-2.90;99.90;;;;;;6250469;23;20340;-82
2024/01/08 23:51:14;;;;;;;15.43;6.60;;;-2.90;99.90;;;;;;6198812;23;20348;-81
2024/01/08 23:53:45;;;;;;;13.07;6.37;;;;;;;;;;6204126;23;20368;-82
2024/01/08 23:56:39;;;;;;;18.00;7.85;;;-2.90;99.90;;;;;;6258959;23;20022;-82
2024/01/08 23:59:42;;;;;;;15.00;7.13;;;-2.90;99.90;;;;;;6224562;23;20030;-81
